IBE14N FVRG-FMMI
Flight info
| Callsign | IBE14N |
|---|---|
| Flight time | 2h 20m |
| Altitude | 37000 |
| Route | VHA UM652 MENSO UG652 VBR UT516 IMKIB DCT SOPVI DCT LIKID LIKID1B |
| Aircraft | A320/M-SDE3FGHIRWY/LB1 |
Departure
| Time | 2026-05-04 07:53 |
|---|---|
| Airport | Robert Gabriel Mugabe International Airport (FVRG) |
Arrival
| Time | 2026-05-04 10:13 |
|---|---|
| Airport | Ivato International Airport (FMMI) |
| Time | Latitude | Longitude | Altitude | Speed | Heading |
|---|---|---|---|---|---|
| 2026-05-04 07:38 | -17.92032 | 31.09832 | 4862 ft | 0 kts | 44° |
| 2026-05-04 07:39 | -17.92033 | 31.09832 | 4897 ft | 0 kts | 44° |
| 2026-05-04 07:43 | -17.92038 | 31.09826 | 4892 ft | 3 kts | 44° |
| 2026-05-04 07:43 | -17.92053 | 31.09811 | 4892 ft | 3 kts | 44° |
| 2026-05-04 07:44 | -17.92066 | 31.09798 | 4893 ft | 2 kts | 44° |
| 2026-05-04 07:44 | -17.92078 | 31.09783 | 4892 ft | 3 kts | 68° |
| 2026-05-04 07:44 | -17.92082 | 31.09764 | 4890 ft | 3 kts | 107° |
| 2026-05-04 07:44 | -17.92073 | 31.09745 | 4886 ft | 3 kts | 130° |
| 2026-05-04 07:45 | -17.92065 | 31.09736 | 4886 ft | 1 kts | 135° |
| 2026-05-04 07:45 | -17.92064 | 31.09735 | 4886 ft | 1 kts | 135° |
| 2026-05-04 07:51 | -17.92096 | 31.09768 | 4892 ft | 25 kts | 134° |
| 2026-05-04 07:51 | -17.92265 | 31.09959 | 4891 ft | 37 kts | 133° |
| 2026-05-04 07:51 | -17.92449 | 31.10052 | 4897 ft | 27 kts | 218° |
| 2026-05-04 07:52 | -17.92606 | 31.09891 | 4893 ft | 47 kts | 223° |
| 2026-05-04 07:52 | -17.93014 | 31.09477 | 4887 ft | 113 kts | 226° |
| 2026-05-04 07:52 | -17.93702 | 31.08746 | 4875 ft | 166 kts | 225° |
| 2026-05-04 07:52 | -17.94617 | 31.07809 | 5021 ft | 197 kts | 221° |
| 2026-05-04 07:53 | -17.95770 | 31.07046 | 5653 ft | 197 kts | 186° |
| 2026-05-04 07:54 | -17.92026 | 31.12389 | 9014 ft | 255 kts | 45° |
| 2026-05-04 07:55 | -17.91149 | 31.13960 | 9706 ft | 254 kts | 79° |
| 2026-05-04 07:55 | -17.91325 | 31.15787 | 10360 ft | 258 kts | 112° |
| 2026-05-04 07:55 | -17.92264 | 31.17419 | 10927 ft | 266 kts | 124° |
| 2026-05-04 07:55 | -17.93416 | 31.18966 | 11471 ft | 272 kts | 126° |
| 2026-05-04 07:56 | -17.94598 | 31.20540 | 12050 ft | 277 kts | 125° |
| 2026-05-04 07:56 | -17.95798 | 31.22142 | 12593 ft | 281 kts | 126° |
| 2026-05-04 07:56 | -17.96926 | 31.23802 | 13140 ft | 284 kts | 118° |
| 2026-05-04 07:56 | -17.97911 | 31.25613 | 13704 ft | 287 kts | 115° |
| 2026-05-04 07:57 | -17.98828 | 31.27490 | 14234 ft | 291 kts | 113° |
| 2026-05-04 07:57 | -17.99737 | 31.29402 | 14747 ft | 294 kts | 113° |
| 2026-05-04 07:57 | -18.00667 | 31.31345 | 15146 ft | 305 kts | 114° |
| 2026-05-04 07:57 | -18.01660 | 31.33386 | 15424 ft | 321 kts | 114° |
| 2026-05-04 07:58 | -18.02717 | 31.35521 | 15688 ft | 338 kts | 115° |
| 2026-05-04 07:58 | -18.03836 | 31.37756 | 15920 ft | 354 kts | 115° |
| 2026-05-04 07:58 | -18.05017 | 31.40092 | 16190 ft | 368 kts | 115° |
| 2026-05-04 07:58 | -18.06235 | 31.42489 | 16676 ft | 374 kts | 115° |
| 2026-05-04 07:59 | -18.07469 | 31.44912 | 17257 ft | 378 kts | 115° |
| 2026-05-04 07:59 | -18.08715 | 31.47360 | 17812 ft | 382 kts | 115° |
| 2026-05-04 07:59 | -18.09972 | 31.49834 | 18398 ft | 385 kts | 115° |
| 2026-05-04 07:59 | -18.11238 | 31.52334 | 18915 ft | 389 kts | 115° |
| 2026-05-04 08:00 | -18.12513 | 31.54854 | 19412 ft | 393 kts | 115° |
| 2026-05-04 08:00 | -18.13800 | 31.57404 | 19892 ft | 396 kts | 115° |
| 2026-05-04 08:00 | -18.15096 | 31.59973 | 20370 ft | 400 kts | 115° |
| 2026-05-04 08:02 | -18.24509 | 31.78639 | 23701 ft | 425 kts | 116° |
| 2026-05-04 08:02 | -18.25913 | 31.81390 | 24096 ft | 429 kts | 116° |
| 2026-05-04 08:02 | -18.27328 | 31.84164 | 24468 ft | 432 kts | 116° |
| 2026-05-04 08:03 | -18.28746 | 31.86956 | 24840 ft | 435 kts | 116° |
| 2026-05-04 08:03 | -18.30173 | 31.89774 | 25211 ft | 437 kts | 116° |
| 2026-05-04 08:03 | -18.31606 | 31.92607 | 25567 ft | 440 kts | 116° |
| 2026-05-04 08:03 | -18.33028 | 31.95418 | 25915 ft | 443 kts | 116° |
| 2026-05-04 08:04 | -18.34481 | 31.98288 | 26271 ft | 445 kts | 116° |
| 2026-05-04 08:04 | -18.35939 | 32.01171 | 26618 ft | 448 kts | 116° |
| 2026-05-04 08:04 | -18.37406 | 32.04070 | 26960 ft | 450 kts | 116° |
| 2026-05-04 08:04 | -18.38880 | 32.06987 | 27296 ft | 452 kts | 116° |
| 2026-05-04 08:05 | -18.40360 | 32.09920 | 27618 ft | 455 kts | 116° |
| 2026-05-04 08:05 | -18.41848 | 32.12872 | 27942 ft | 457 kts | 116° |
| 2026-05-04 08:05 | -18.43343 | 32.15836 | 28264 ft | 460 kts | 116° |
| 2026-05-04 08:05 | -18.44849 | 32.18818 | 28565 ft | 462 kts | 117° |
| 2026-05-04 08:06 | -18.46365 | 32.21816 | 28874 ft | 465 kts | 117° |
| 2026-05-04 08:06 | -18.47887 | 32.24831 | 29179 ft | 467 kts | 117° |
| 2026-05-04 08:06 | -18.49416 | 32.27859 | 29485 ft | 469 kts | 117° |
| 2026-05-04 08:06 | -18.50950 | 32.30901 | 29779 ft | 472 kts | 117° |
| 2026-05-04 08:08 | -18.62142 | 32.52471 | 31496 ft | 486 kts | 118° |
| 2026-05-04 08:08 | -18.63756 | 32.55608 | 31722 ft | 487 kts | 118° |
| 2026-05-04 08:10 | -18.76593 | 32.80527 | 34239 ft | 482 kts | 119° |
| 2026-05-04 08:11 | -18.78191 | 32.83632 | 34513 ft | 481 kts | 119° |
| 2026-05-04 08:11 | -18.81340 | 32.89865 | 35014 ft | 481 kts | 118° |
| 2026-05-04 08:11 | -18.82888 | 32.92992 | 35256 ft | 480 kts | 118° |
| 2026-05-04 08:12 | -18.84429 | 32.96116 | 35492 ft | 480 kts | 118° |
| 2026-05-04 08:12 | -18.85973 | 32.99241 | 35721 ft | 480 kts | 118° |
| 2026-05-04 08:12 | -18.87523 | 33.02363 | 35936 ft | 480 kts | 118° |
| 2026-05-04 08:12 | -18.89075 | 33.05476 | 36153 ft | 479 kts | 118° |
| 2026-05-04 08:13 | -18.90629 | 33.08593 | 36370 ft | 479 kts | 118° |
| 2026-05-04 08:13 | -18.92182 | 33.11705 | 36584 ft | 479 kts | 118° |
| 2026-05-04 08:13 | -18.93732 | 33.14818 | 36807 ft | 479 kts | 118° |
| 2026-05-04 08:13 | -18.95278 | 33.17929 | 37014 ft | 478 kts | 118° |
| 2026-05-04 08:14 | -18.96824 | 33.21039 | 37187 ft | 478 kts | 118° |
| 2026-05-04 08:14 | -18.98365 | 33.24140 | 37242 ft | 475 kts | 118° |
| 2026-05-04 08:16 | -19.10625 | 33.48814 | 37276 ft | 475 kts | 118° |
| 2026-05-04 08:16 | -19.13716 | 33.54988 | 37264 ft | 475 kts | 119° |
| 2026-05-04 08:17 | -19.16800 | 33.61174 | 37248 ft | 476 kts | 118° |
| 2026-05-04 08:17 | -19.19872 | 33.67375 | 37229 ft | 476 kts | 118° |
| 2026-05-04 08:19 | -19.32171 | 33.92199 | 37165 ft | 477 kts | 118° |
| 2026-05-04 08:20 | -19.35230 | 33.98375 | 37163 ft | 477 kts | 118° |
| 2026-05-04 08:20 | -19.38298 | 34.04597 | 37163 ft | 477 kts | 118° |
| 2026-05-04 08:21 | -19.41366 | 34.10825 | 37166 ft | 477 kts | 118° |
| 2026-05-04 08:21 | -19.44437 | 34.17058 | 37165 ft | 477 kts | 118° |
| 2026-05-04 08:22 | -19.47505 | 34.23293 | 37167 ft | 477 kts | 118° |
| 2026-05-04 08:24 | -19.59774 | 34.48285 | 37163 ft | 478 kts | 118° |
| 2026-05-04 08:24 | -19.62833 | 34.54543 | 37159 ft | 478 kts | 118° |
| 2026-05-04 08:25 | -19.65893 | 34.60801 | 37149 ft | 478 kts | 118° |
| 2026-05-04 08:25 | -19.68933 | 34.67017 | 37141 ft | 478 kts | 118° |
| 2026-05-04 08:27 | -19.77969 | 34.93140 | 37127 ft | 478 kts | 83° |
| 2026-05-04 08:28 | -19.77122 | 35.00148 | 37130 ft | 478 kts | 81° |
| 2026-05-04 08:28 | -19.76254 | 35.07149 | 37140 ft | 478 kts | 81° |
| 2026-05-04 08:29 | -19.75392 | 35.14156 | 37147 ft | 478 kts | 81° |
| 2026-05-04 08:31 | -19.71914 | 35.42097 | 37153 ft | 478 kts | 81° |
| 2026-05-04 08:33 | -19.68530 | 35.68874 | 37147 ft | 478 kts | 81° |
| 2026-05-04 08:35 | -19.64975 | 35.96788 | 37148 ft | 477 kts | 81° |
| 2026-05-04 08:35 | -19.64091 | 36.03756 | 37145 ft | 476 kts | 81° |
| 2026-05-04 08:37 | -19.60987 | 36.28140 | 37145 ft | 476 kts | 81° |
| 2026-05-04 08:38 | -19.60098 | 36.35055 | 37141 ft | 476 kts | 81° |
| 2026-05-04 08:38 | -19.59199 | 36.42005 | 37130 ft | 476 kts | 81° |
| 2026-05-04 08:40 | -19.55588 | 36.69802 | 37132 ft | 475 kts | 81° |
| 2026-05-04 08:41 | -19.54674 | 36.76748 | 37131 ft | 475 kts | 81° |
| 2026-05-04 08:41 | -19.53766 | 36.83685 | 37128 ft | 475 kts | 81° |
| 2026-05-04 08:42 | -19.52852 | 36.90626 | 37126 ft | 475 kts | 81° |
| 2026-05-04 08:42 | -19.51930 | 36.97566 | 37127 ft | 475 kts | 81° |
| 2026-05-04 08:43 | -19.51004 | 37.04504 | 37133 ft | 476 kts | 81° |
| 2026-05-04 08:43 | -19.50099 | 37.11275 | 37137 ft | 476 kts | 81° |
| 2026-05-04 08:44 | -19.49170 | 37.18214 | 37142 ft | 475 kts | 81° |
| 2026-05-04 08:46 | -19.45446 | 37.45906 | 37131 ft | 475 kts | 81° |
| 2026-05-04 08:46 | -19.44498 | 37.52833 | 37131 ft | 475 kts | 81° |
| 2026-05-04 08:47 | -19.43558 | 37.59769 | 37128 ft | 475 kts | 81° |
| 2026-05-04 08:47 | -19.42615 | 37.66701 | 37123 ft | 476 kts | 81° |
| 2026-05-04 08:48 | -19.41667 | 37.73638 | 37128 ft | 476 kts | 81° |
| 2026-05-04 08:48 | -19.40713 | 37.80571 | 37127 ft | 476 kts | 81° |
| 2026-05-04 08:49 | -19.39764 | 37.87504 | 37127 ft | 476 kts | 81° |
| 2026-05-04 08:50 | -19.36406 | 38.11778 | 37130 ft | 476 kts | 81° |
| 2026-05-04 08:51 | -19.35454 | 38.18712 | 37127 ft | 476 kts | 81° |
| 2026-05-04 08:51 | -19.34500 | 38.25601 | 37122 ft | 476 kts | 81° |
| 2026-05-04 08:52 | -19.33531 | 38.32534 | 37114 ft | 476 kts | 81° |
| 2026-05-04 08:52 | -19.32558 | 38.39463 | 37116 ft | 476 kts | 81° |
| 2026-05-04 08:54 | -19.28645 | 38.67179 | 37114 ft | 476 kts | 81° |
| 2026-05-04 08:55 | -19.27661 | 38.74109 | 37110 ft | 476 kts | 81° |
| 2026-05-04 08:55 | -19.26678 | 38.81035 | 37107 ft | 476 kts | 81° |
| 2026-05-04 09:01 | -19.16182 | 39.53635 | 37097 ft | 476 kts | 81° |
| 2026-05-04 09:01 | -19.15168 | 39.60547 | 37098 ft | 475 kts | 81° |
| 2026-05-04 09:02 | -19.14150 | 39.67459 | 37094 ft | 476 kts | 81° |
| 2026-05-04 09:02 | -19.13118 | 39.74369 | 37102 ft | 476 kts | 81° |
| 2026-05-04 09:03 | -19.12093 | 39.81287 | 37109 ft | 476 kts | 81° |
| 2026-05-04 09:03 | -19.11089 | 39.88155 | 37102 ft | 476 kts | 81° |
| 2026-05-04 09:04 | -19.10066 | 39.95068 | 37100 ft | 476 kts | 81° |
| 2026-05-04 09:04 | -19.09028 | 40.01982 | 37104 ft | 476 kts | 81° |
| 2026-05-04 09:05 | -19.07981 | 40.08888 | 37100 ft | 476 kts | 81° |
| 2026-05-04 09:05 | -19.06945 | 40.15793 | 37099 ft | 476 kts | 81° |
| 2026-05-04 09:06 | -19.05918 | 40.22700 | 37095 ft | 476 kts | 81° |
| 2026-05-04 09:08 | -19.01738 | 40.50304 | 37095 ft | 476 kts | 81° |
| 2026-05-04 09:08 | -19.00693 | 40.57203 | 37096 ft | 475 kts | 81° |
| 2026-05-04 09:09 | -19.00145 | 40.64129 | 37077 ft | 474 kts | 94° |
| 2026-05-04 09:09 | -19.00559 | 40.71084 | 37074 ft | 474 kts | 94° |
| 2026-05-04 09:10 | -19.00954 | 40.78035 | 37073 ft | 474 kts | 94° |
| 2026-05-04 09:10 | -19.01344 | 40.84991 | 37082 ft | 474 kts | 94° |
| 2026-05-04 09:11 | -19.01740 | 40.91953 | 37089 ft | 475 kts | 94° |
| 2026-05-04 09:11 | -19.02129 | 40.98864 | 37091 ft | 474 kts | 94° |
| 2026-05-04 09:12 | -19.02512 | 41.05819 | 37083 ft | 474 kts | 94° |
| 2026-05-04 09:14 | -19.04050 | 41.33624 | 37065 ft | 474 kts | 94° |
| 2026-05-04 09:14 | -19.04420 | 41.40574 | 37063 ft | 474 kts | 94° |
| 2026-05-04 09:15 | -19.04802 | 41.47520 | 37063 ft | 473 kts | 94° |
| 2026-05-04 09:15 | -19.05176 | 41.54468 | 37057 ft | 473 kts | 94° |
| 2026-05-04 09:17 | -19.06801 | 41.85677 | 37054 ft | 473 kts | 94° |
| 2026-05-04 09:18 | -19.07150 | 41.92618 | 37048 ft | 473 kts | 94° |
| 2026-05-04 09:18 | -19.07506 | 41.99560 | 37049 ft | 473 kts | 94° |
| 2026-05-04 09:19 | -19.07861 | 42.06502 | 37044 ft | 473 kts | 94° |
| 2026-05-04 09:19 | -19.08210 | 42.13439 | 37041 ft | 473 kts | 94° |
| 2026-05-04 09:20 | -19.08556 | 42.20384 | 37039 ft | 473 kts | 94° |
| 2026-05-04 09:20 | -19.08904 | 42.27324 | 37040 ft | 473 kts | 94° |
| 2026-05-04 09:21 | -19.09248 | 42.34262 | 37039 ft | 473 kts | 94° |
| 2026-05-04 09:21 | -19.09578 | 42.41203 | 37040 ft | 473 kts | 94° |
| 2026-05-04 09:22 | -19.09910 | 42.48144 | 37042 ft | 472 kts | 94° |
| 2026-05-04 09:22 | -19.10241 | 42.55080 | 37038 ft | 473 kts | 94° |
| 2026-05-04 09:23 | -19.10569 | 42.61970 | 37041 ft | 472 kts | 94° |
| 2026-05-04 09:23 | -19.10894 | 42.68906 | 37042 ft | 472 kts | 94° |
| 2026-05-04 09:25 | -19.12118 | 42.95485 | 37035 ft | 472 kts | 93° |
| 2026-05-04 09:26 | -19.12432 | 43.02419 | 37036 ft | 472 kts | 94° |
| 2026-05-04 09:26 | -19.12756 | 43.09358 | 37034 ft | 472 kts | 94° |
| 2026-05-04 09:27 | -19.13066 | 43.16290 | 37033 ft | 472 kts | 93° |
| 2026-05-04 09:27 | -19.13372 | 43.23227 | 37033 ft | 472 kts | 93° |
| 2026-05-04 09:28 | -19.13673 | 43.30164 | 37037 ft | 472 kts | 93° |
| 2026-05-04 09:28 | -19.13975 | 43.37102 | 37039 ft | 472 kts | 93° |
| 2026-05-04 09:29 | -19.14267 | 43.44033 | 37041 ft | 472 kts | 93° |
| 2026-05-04 09:29 | -19.14558 | 43.50970 | 37042 ft | 472 kts | 93° |
| 2026-05-04 09:30 | -19.14850 | 43.57909 | 37045 ft | 472 kts | 93° |
| 2026-05-04 09:30 | -19.15147 | 43.64842 | 37041 ft | 472 kts | 93° |
| 2026-05-04 09:31 | -19.15441 | 43.71772 | 37035 ft | 472 kts | 93° |
| 2026-05-04 09:31 | -19.15726 | 43.78703 | 37036 ft | 472 kts | 93° |
| 2026-05-04 09:32 | -19.16011 | 43.85636 | 37033 ft | 472 kts | 93° |
| 2026-05-04 09:34 | -19.17113 | 44.13333 | 37031 ft | 472 kts | 93° |
| 2026-05-04 09:34 | -19.17377 | 44.20271 | 37027 ft | 472 kts | 93° |
| 2026-05-04 09:35 | -19.17642 | 44.27209 | 37027 ft | 472 kts | 93° |
| 2026-05-04 09:35 | -19.17911 | 44.34146 | 37026 ft | 472 kts | 93° |
| 2026-05-04 09:37 | -19.18941 | 44.61888 | 37024 ft | 472 kts | 93° |
| 2026-05-04 09:38 | -19.19197 | 44.68825 | 37024 ft | 472 kts | 93° |
| 2026-05-04 09:38 | -19.19452 | 44.75715 | 37023 ft | 472 kts | 93° |
| 2026-05-04 09:39 | -19.19695 | 44.82593 | 37024 ft | 472 kts | 93° |
| 2026-05-04 09:39 | -19.19813 | 44.86139 | 36804 ft | 476 kts | 93° |
| 2026-05-04 09:39 | -19.19931 | 44.89636 | 36556 ft | 475 kts | 92° |
| 2026-05-04 09:40 | -19.20053 | 44.93128 | 36308 ft | 475 kts | 93° |
| 2026-05-04 09:40 | -19.20178 | 44.96622 | 36069 ft | 475 kts | 93° |
| 2026-05-04 09:40 | -19.20301 | 45.00109 | 35829 ft | 474 kts | 93° |
| 2026-05-04 09:40 | -19.20422 | 45.03584 | 35592 ft | 471 kts | 92° |
| 2026-05-04 09:41 | -19.20540 | 45.07041 | 35358 ft | 469 kts | 92° |
| 2026-05-04 09:42 | -19.21332 | 45.30790 | 33738 ft | 454 kts | 92° |
| 2026-05-04 09:43 | -19.21438 | 45.34128 | 33479 ft | 453 kts | 92° |
| 2026-05-04 09:43 | -19.21547 | 45.37447 | 33232 ft | 451 kts | 93° |
| 2026-05-04 09:43 | -19.21657 | 45.40757 | 32983 ft | 449 kts | 93° |
| 2026-05-04 09:43 | -19.21765 | 45.44051 | 32737 ft | 447 kts | 93° |
| 2026-05-04 09:44 | -19.21869 | 45.47328 | 32495 ft | 445 kts | 93° |
| 2026-05-04 09:44 | -19.21967 | 45.50556 | 32258 ft | 443 kts | 93° |
| 2026-05-04 09:44 | -19.22066 | 45.53807 | 32020 ft | 442 kts | 93° |
| 2026-05-04 09:46 | -19.22751 | 45.76215 | 30402 ft | 429 kts | 93° |
| 2026-05-04 09:46 | -19.22845 | 45.79357 | 30180 ft | 427 kts | 94° |
| 2026-05-04 09:46 | -19.22941 | 45.82500 | 29917 ft | 425 kts | 94° |
| 2026-05-04 09:47 | -19.23036 | 45.85614 | 29652 ft | 422 kts | 93° |
| 2026-05-04 09:47 | -19.23129 | 45.88714 | 29384 ft | 420 kts | 93° |
| 2026-05-04 09:49 | -19.23744 | 46.09898 | 27605 ft | 403 kts | 92° |
| 2026-05-04 09:49 | -19.23832 | 46.12862 | 27356 ft | 401 kts | 92° |
| 2026-05-04 09:49 | -19.23919 | 46.15804 | 27112 ft | 399 kts | 92° |
| 2026-05-04 09:51 | -19.24385 | 46.33111 | 25702 ft | 388 kts | 92° |
| 2026-05-04 09:51 | -19.24460 | 46.35957 | 25473 ft | 386 kts | 92° |
| 2026-05-04 09:51 | -19.24537 | 46.38792 | 25248 ft | 384 kts | 91° |
| 2026-05-04 09:51 | -19.24613 | 46.41608 | 25023 ft | 382 kts | 91° |
| 2026-05-04 09:52 | -19.24690 | 46.44407 | 24802 ft | 379 kts | 91° |
| 2026-05-04 09:52 | -19.24766 | 46.47180 | 24453 ft | 375 kts | 91° |
| 2026-05-04 09:52 | -19.24839 | 46.49928 | 23986 ft | 374 kts | 91° |
| 2026-05-04 09:52 | -19.24910 | 46.52679 | 23463 ft | 374 kts | 91° |
| 2026-05-04 09:53 | -19.24899 | 46.55419 | 22966 ft | 371 kts | 84° |
| 2026-05-04 09:53 | -19.24437 | 46.58090 | 22520 ft | 367 kts | 73° |
| 2026-05-04 09:53 | -19.23509 | 46.60593 | 22067 ft | 365 kts | 63° |
| 2026-05-04 09:53 | -19.22369 | 46.62979 | 21622 ft | 362 kts | 63° |
| 2026-05-04 09:54 | -19.21240 | 46.65354 | 21193 ft | 360 kts | 63° |
| 2026-05-04 09:54 | -19.20124 | 46.67719 | 20754 ft | 359 kts | 63° |
| 2026-05-04 09:54 | -19.19014 | 46.70077 | 20321 ft | 357 kts | 64° |
| 2026-05-04 09:54 | -19.17912 | 46.72419 | 20000 ft | 352 kts | 64° |
| 2026-05-04 09:55 | -19.16813 | 46.74752 | 19176 ft | 356 kts | 64° |
| 2026-05-04 09:55 | -19.15704 | 46.77102 | 18318 ft | 357 kts | 64° |
| 2026-05-04 09:55 | -19.14591 | 46.79450 | 17481 ft | 355 kts | 64° |
| 2026-05-04 09:55 | -19.13500 | 46.81746 | 17007 ft | 343 kts | 64° |
| 2026-05-04 09:56 | -19.12448 | 46.83961 | 16601 ft | 331 kts | 64° |
| 2026-05-04 09:56 | -19.11432 | 46.86099 | 16206 ft | 320 kts | 64° |
| 2026-05-04 09:56 | -19.10449 | 46.88171 | 15835 ft | 311 kts | 65° |
| 2026-05-04 09:56 | -19.09487 | 46.90203 | 15461 ft | 309 kts | 65° |
| 2026-05-04 09:57 | -19.08525 | 46.92233 | 15089 ft | 308 kts | 65° |
| 2026-05-04 09:57 | -19.07572 | 46.94251 | 14721 ft | 306 kts | 65° |
| 2026-05-04 09:57 | -19.06621 | 46.96263 | 14350 ft | 305 kts | 65° |
| 2026-05-04 09:57 | -19.05673 | 46.98267 | 13999 ft | 303 kts | 65° |
| 2026-05-04 09:58 | -19.04753 | 47.00197 | 13884 ft | 285 kts | 65° |
| 2026-05-04 09:58 | -19.03893 | 47.02001 | 13636 ft | 275 kts | 65° |
| 2026-05-04 09:58 | -19.03042 | 47.03790 | 13186 ft | 271 kts | 65° |
| 2026-05-04 10:00 | -19.02326 | 47.15248 | 10398 ft | 234 kts | 158° |
| 2026-05-04 10:00 | -19.03893 | 47.15631 | 10352 ft | 230 kts | 181° |
| 2026-05-04 10:02 | -19.08277 | 47.06528 | 9999 ft | 250 kts | 308° |
| 2026-05-04 10:04 | -18.99432 | 47.10878 | 9591 ft | 249 kts | 51° |
| 2026-05-04 10:04 | -18.98180 | 47.12145 | 9537 ft | 250 kts | 42° |
| 2026-05-04 10:04 | -18.96818 | 47.13294 | 9481 ft | 251 kts | 40° |
| 2026-05-04 10:04 | -18.95446 | 47.14423 | 9422 ft | 250 kts | 40° |
| 2026-05-04 10:05 | -18.94090 | 47.15572 | 9370 ft | 251 kts | 41° |
| 2026-05-04 10:05 | -18.92751 | 47.16750 | 9317 ft | 249 kts | 43° |
| 2026-05-04 10:05 | -18.91432 | 47.17945 | 9263 ft | 248 kts | 43° |
| 2026-05-04 10:05 | -18.90132 | 47.19145 | 9214 ft | 248 kts | 44° |
| 2026-05-04 10:06 | -18.88847 | 47.20347 | 9136 ft | 241 kts | 44° |
| 2026-05-04 10:06 | -18.87657 | 47.21462 | 9113 ft | 216 kts | 45° |
| 2026-05-04 10:06 | -18.86600 | 47.22451 | 9074 ft | 190 kts | 45° |
| 2026-05-04 10:08 | -18.81487 | 47.27293 | 8312 ft | 157 kts | 47° |
| 2026-05-04 10:08 | -18.80677 | 47.28062 | 8099 ft | 156 kts | 47° |
| 2026-05-04 10:08 | -18.79874 | 47.28820 | 7894 ft | 157 kts | 47° |
| 2026-05-04 10:08 | -18.79060 | 47.29588 | 7677 ft | 154 kts | 47° |
| 2026-05-04 10:09 | -18.78280 | 47.30337 | 7477 ft | 152 kts | 52° |
| 2026-05-04 10:09 | -18.77712 | 47.31235 | 7299 ft | 146 kts | 70° |
| 2026-05-04 10:09 | -18.77463 | 47.32262 | 7128 ft | 143 kts | 95° |
| 2026-05-04 10:09 | -18.77584 | 47.33278 | 6875 ft | 140 kts | 99° |
| 2026-05-04 10:10 | -18.77696 | 47.34286 | 6606 ft | 137 kts | 100° |
| 2026-05-04 10:10 | -18.77825 | 47.35275 | 6390 ft | 135 kts | 99° |
| 2026-05-04 10:10 | -18.77962 | 47.36247 | 6095 ft | 133 kts | 100° |
| 2026-05-04 10:10 | -18.78104 | 47.37227 | 5924 ft | 136 kts | 100° |
| 2026-05-04 10:11 | -18.78248 | 47.38200 | 5759 ft | 133 kts | 99° |
| 2026-05-04 10:11 | -18.78391 | 47.39162 | 5587 ft | 133 kts | 101° |
| 2026-05-04 10:11 | -18.78538 | 47.40148 | 5415 ft | 136 kts | 101° |
| 2026-05-04 10:11 | -18.78685 | 47.41134 | 5250 ft | 135 kts | 97° |
| 2026-05-04 10:12 | -18.78830 | 47.42103 | 5058 ft | 134 kts | 101° |
| 2026-05-04 10:12 | -18.78979 | 47.43098 | 4872 ft | 142 kts | 102° |
| 2026-05-04 10:12 | -18.79133 | 47.44127 | 4673 ft | 141 kts | 102° |
| 2026-05-04 10:12 | -18.79285 | 47.45149 | 4487 ft | 140 kts | 102° |
| 2026-05-04 10:13 | -18.79436 | 47.46157 | 4309 ft | 140 kts | 103° |
| 2026-05-04 10:13 | -18.79569 | 47.47031 | 4188 ft | 65 kts | 100° |
| 2026-05-04 10:13 | -18.79620 | 47.47348 | 4181 ft | 37 kts | 103° |
| 2026-05-04 10:13 | -18.79684 | 47.47587 | 4176 ft | 28 kts | 160° |
| 2026-05-04 10:14 | -18.79850 | 47.47555 | 4174 ft | 22 kts | 255° |
| 2026-05-04 10:14 | -18.79853 | 47.47537 | 4174 ft | 0 kts | 272° |